Time,TemperatureF,DewpointF,PressureIn,WindDirection,WindDirectionDegrees,WindSpeedMPH,WindSpeedGustMPH,Humidity,HourlyPrecipIn,Conditions,Clouds,dailyrainin,SolarRadiationWatts/m^2,SoftwareType,DateUTC
2015-06-01 04:42:00,53.0,50.0,30.06,North,358,3.0,8.0,90,-99.99,,,-99.99,0.000000,,2015-06-01 08:42:00,
2015-06-01 09:11:00,53.0,50.0,30.09,NW,305,2.0,10.0,89,-99.99,,,-99.99,65.000000,,2015-06-01 13:11:00,
2015-06-01 09:21:00,53.0,50.0,30.09,NNE,18,4.0,9.0,89,-99.99,,,-99.99,76.000000,,2015-06-01 13:21:00,
2015-06-01 09:51:00,54.0,51.0,30.10,North,353,2.0,5.0,89,-99.99,,,-99.99,107.000000,,2015-06-01 13:51:00,
2015-06-01 11:21:00,53.0,49.0,30.09,NNE,30,3.0,8.0,87,-99.99,,,-99.99,104.000000,,2015-06-01 15:21:00,
2015-06-01 12:21:00,54.0,51.0,30.10,NNE,16,0.0,5.0,89,-99.99,,,-99.99,120.000000,,2015-06-01 16:21:00,
2015-06-01 13:12:00,54.0,51.0,30.11,NNE,15,2.0,7.0,90,-99.99,,,-99.99,193.000000,,2015-06-01 17:12:00,
2015-06-01 13:22:00,54.0,51.0,30.11,NNW,339,3.0,8.0,90,-99.99,,,-99.99,134.000000,,2015-06-01 17:22:00,
2015-06-01 13:32:00,54.0,51.0,30.11,NNW,343,4.0,7.0,90,-99.99,,,-99.99,158.000000,,2015-06-01 17:32:00,
2015-06-01 13:52:00,54.0,51.0,30.11,NE,53,2.0,3.0,91,-99.99,,,-99.99,142.000000,,2015-06-01 17:52:00,
2015-06-01 14:12:00,54.0,52.0,30.10,North,0,3.0,3.0,92,-99.99,,,-99.99,134.000000,,2015-06-01 18:12:00,
2015-06-01 15:03:00,55.0,53.0,30.10,North,5,2.0,7.0,93,-99.99,,,-99.99,306.000000,,2015-06-01 19:03:00,
2015-06-01 15:12:00,56.0,54.0,30.09,North,356,3.0,6.0,93,-99.99,,,-99.99,404.000000,,2015-06-01 19:12:00,
2015-06-01 16:12:00,57.0,54.0,30.09,NNE,15,2.0,7.0,90,-99.99,,,-99.99,227.000000,,2015-06-01 20:12:00,
2015-06-01 17:12:00,57.0,53.0,30.07,NNE,33,3.0,12.0,88,-99.99,,,-99.99,281.000000,,2015-06-01 21:12:00,
2015-06-01 17:43:00,58.0,54.0,30.06,NNW,337,2.0,8.0,87,-99.99,,,-99.99,98.000000,,2015-06-01 21:43:00,
2015-06-01 18:11:00,58.0,54.0,30.06,ENE,61,2.0,6.0,87,-99.99,,,-99.99,262.000000,,2015-06-01 22:11:00,
2015-06-01 18:21:00,59.0,55.0,30.06,North,355,2.0,8.0,86,-99.99,,,-99.99,209.000000,,2015-06-01 22:21:00,
2015-06-01 18:31:00,58.0,54.0,30.06,NNE,33,6.0,10.0,85,-99.99,,,-99.99,153.000000,,2015-06-01 22:31:00,
2015-06-01 19:11:00,58.0,54.0,30.07,NW,324,2.0,7.0,86,-99.99,,,-99.99,105.000000,,2015-06-01 23:11:00,
2015-06-01 19:42:00,58.0,54.0,30.08,NNE,31,3.0,6.0,86,-99.99,,,-99.99,26.000000,,2015-06-01 23:42:00,
2015-06-01 20:11:00,57.0,53.0,30.08,NNE,18,1.0,6.0,86,-99.99,,,-99.99,23.000000,,2015-06-02 00:11:00,
2015-06-01 20:21:00,57.0,53.0,30.09,North,6,3.0,8.0,86,-99.99,,,-99.99,14.000000,,2015-06-02 00:21:00,
2015-06-01 20:31:00,57.0,53.0,30.09,NNW,347,4.0,7.0,86,-99.99,,,-99.99,14.000000,,2015-06-02 00:31:00,
2015-06-01 21:21:00,57.0,53.0,30.09,NNE,21,2.0,6.0,86,-99.99,,,-99.99,7.000000,,2015-06-02 01:21:00,
2015-06-01 21:31:00,57.0,53.0,30.09,NE,43,3.0,6.0,87,-99.99,,,-99.99,0.000000,,2015-06-02 01:31:00,
2015-06-01 21:51:00,56.0,52.0,30.09,NNW,343,2.0,6.0,87,-99.99,,,-99.99,0.000000,,2015-06-02 01:51:00,
2015-06-01 22:12:00,56.0,52.0,30.10,North,355,2.0,7.0,87,-99.99,,,-99.99,0.000000,,2015-06-02 02:12:00,
2015-06-01 22:21:00,56.0,52.0,30.10,NNE,16,3.0,10.0,87,-99.99,,,-99.99,0.000000,,2015-06-02 02:21:00,
2015-06-01 22:41:00,56.0,52.0,30.10,North,356,3.0,10.0,87,-99.99,,,-99.99,0.000000,,2015-06-02 02:41:00,
2015-06-01 22:51:00,56.0,52.0,30.11,NW,326,3.0,8.0,87,-99.99,,,-99.99,0.000000,,2015-06-02 02:51:00,
2015-06-01 23:03:00,56.0,52.0,30.11,NNE,12,2.0,5.0,87,-99.99,,,-99.99,0.000000,,2015-06-02 03:03:00,
2015-06-01 23:11:00,55.0,51.0,30.11,NNW,343,2.0,5.0,87,-99.99,,,-99.99,0.000000,,2015-06-02 03:11:00,
2015-06-01 23:31:00,55.0,51.0,30.11,North,10,2.0,3.0,87,-99.99,,,-99.99,0.000000,,2015-06-02 03:31:00,